sensor_id;sensor_type;location;lat;lon;timestamp;P1;durP1;ratioP1;P2;durP2;ratioP2
64459;SDS011;50828;53.756;21.140;2022-12-16T00:00:08;111.40;;;38.30;;
64459;SDS011;50828;53.756;21.140;2022-12-16T00:05:17;107.40;;;36.00;;
64459;SDS011;50828;53.756;21.140;2022-12-16T00:10:26;113.20;;;34.80;;
64459;SDS011;50828;53.756;21.140;2022-12-16T00:15:56;105.80;;;34.50;;
64459;SDS011;50828;53.756;21.140;2022-12-16T00:21:05;98.40;;;33.50;;
64459;SDS011;50828;53.756;21.140;2022-12-16T00:26:14;112.60;;;35.10;;
64459;SDS011;50828;53.756;21.140;2022-12-16T00:31:22;101.00;;;34.60;;
64459;SDS011;50828;53.756;21.140;2022-12-16T00:36:31;103.80;;;36.00;;
64459;SDS011;50828;53.756;21.140;2022-12-16T00:41:39;98.80;;;35.30;;
64459;SDS011;50828;53.756;21.140;2022-12-16T00:46:48;112.20;;;37.90;;
64459;SDS011;50828;53.756;21.140;2022-12-16T00:51:58;100.40;;;35.20;;
64459;SDS011;50828;53.756;21.140;2022-12-16T00:57:06;115.00;;;35.80;;
64459;SDS011;50828;53.756;21.140;2022-12-16T01:02:15;112.00;;;37.00;;
64459;SDS011;50828;53.756;21.140;2022-12-16T01:07:23;108.90;;;35.90;;
64459;SDS011;50828;53.756;21.140;2022-12-16T01:12:32;103.20;;;37.60;;
64459;SDS011;50828;53.756;21.140;2022-12-16T01:17:40;112.40;;;35.10;;
64459;SDS011;50828;53.756;21.140;2022-12-16T01:22:49;116.80;;;38.50;;
64459;SDS011;50828;53.756;21.140;2022-12-16T01:27:58;109.90;;;37.30;;
64459;SDS011;50828;53.756;21.140;2022-12-16T01:33:06;116.40;;;38.90;;
64459;SDS011;50828;53.756;21.140;2022-12-16T01:38:15;118.60;;;39.20;;
64459;SDS011;50828;53.756;21.140;2022-12-16T01:43:25;103.50;;;35.70;;
64459;SDS011;50828;53.756;21.140;2022-12-16T01:48:37;102.10;;;35.90;;
64459;SDS011;50828;53.756;21.140;2022-12-16T01:53:51;110.50;;;36.00;;
64459;SDS011;50828;53.756;21.140;2022-12-16T01:59:04;98.00;;;34.00;;
64459;SDS011;50828;53.756;21.140;2022-12-16T02:04:13;102.80;;;35.30;;
64459;SDS011;50828;53.756;21.140;2022-12-16T02:09:21;96.50;;;34.10;;
64459;SDS011;50828;53.756;21.140;2022-12-16T02:14:34;104.80;;;36.00;;
64459;SDS011;50828;53.756;21.140;2022-12-16T02:20:02;111.20;;;38.80;;
64459;SDS011;50828;53.756;21.140;2022-12-16T02:25:36;106.90;;;36.30;;
64459;SDS011;50828;53.756;21.140;2022-12-16T02:31:13;113.10;;;39.30;;
64459;SDS011;50828;53.756;21.140;2022-12-16T02:41:46;94.40;;;34.10;;
64459;SDS011;50828;53.756;21.140;2022-12-16T02:47:02;110.80;;;36.80;;
64459;SDS011;50828;53.756;21.140;2022-12-16T02:52:10;101.60;;;32.90;;
64459;SDS011;50828;53.756;21.140;2022-12-16T02:57:33;103.90;;;34.90;;
64459;SDS011;50828;53.756;21.140;2022-12-16T03:02:55;104.90;;;35.30;;
64459;SDS011;50828;53.756;21.140;2022-12-16T03:08:08;101.00;;;33.10;;
64459;SDS011;50828;53.756;21.140;2022-12-16T03:13:19;89.70;;;31.70;;
64459;SDS011;50828;53.756;21.140;2022-12-16T03:18:28;106.30;;;37.00;;
64459;SDS011;50828;53.756;21.140;2022-12-16T03:23:38;84.50;;;31.30;;
64459;SDS011;50828;53.756;21.140;2022-12-16T03:28:54;91.90;;;32.30;;
64459;SDS011;50828;53.756;21.140;2022-12-16T03:34:08;89.10;;;31.60;;
64459;SDS011;50828;53.756;21.140;2022-12-16T03:39:21;96.40;;;30.30;;
64459;SDS011;50828;53.756;21.140;2022-12-16T03:44:30;91.80;;;33.50;;
64459;SDS011;50828;53.756;21.140;2022-12-16T03:49:40;101.60;;;32.70;;
64459;SDS011;50828;53.756;21.140;2022-12-16T03:54:49;92.60;;;33.40;;
64459;SDS011;50828;53.756;21.140;2022-12-16T03:59:57;87.80;;;31.00;;
64459;SDS011;50828;53.756;21.140;2022-12-16T04:05:14;94.60;;;31.90;;
64459;SDS011;50828;53.756;21.140;2022-12-16T04:10:22;94.60;;;32.70;;
64459;SDS011;50828;53.756;21.140;2022-12-16T04:15:46;83.60;;;30.90;;
64459;SDS011;50828;53.756;21.140;2022-12-16T04:21:13;91.10;;;31.90;;
64459;SDS011;50828;53.756;21.140;2022-12-16T04:26:40;88.00;;;29.40;;
64459;SDS011;50828;53.756;21.140;2022-12-16T04:32:03;80.40;;;28.30;;
64459;SDS011;50828;53.756;21.140;2022-12-16T04:37:12;76.60;;;28.00;;
64459;SDS011;50828;53.756;21.140;2022-12-16T04:42:38;92.30;;;30.20;;
64459;SDS011;50828;53.756;21.140;2022-12-16T04:48:07;107.70;;;35.70;;
64459;SDS011;50828;53.756;21.140;2022-12-16T04:53:34;96.00;;;31.90;;
64459;SDS011;50828;53.756;21.140;2022-12-16T04:58:59;86.00;;;29.60;;
64459;SDS011;50828;53.756;21.140;2022-12-16T05:04:25;73.80;;;29.10;;
64459;SDS011;50828;53.756;21.140;2022-12-16T05:09:50;77.70;;;27.70;;
64459;SDS011;50828;53.756;21.140;2022-12-16T05:15:17;95.10;;;32.30;;
64459;SDS011;50828;53.756;21.140;2022-12-16T05:20:43;83.70;;;28.00;;
64459;SDS011;50828;53.756;21.140;2022-12-16T05:26:09;85.80;;;28.70;;
64459;SDS011;50828;53.756;21.140;2022-12-16T05:31:36;77.00;;;28.90;;
64459;SDS011;50828;53.756;21.140;2022-12-16T05:37:02;74.30;;;27.20;;
64459;SDS011;50828;53.756;21.140;2022-12-16T05:42:28;90.30;;;30.70;;
64459;SDS011;50828;53.756;21.140;2022-12-16T05:47:51;75.00;;;27.40;;
64459;SDS011;50828;53.756;21.140;2022-12-16T05:53:17;88.10;;;30.30;;
64459;SDS011;50828;53.756;21.140;2022-12-16T05:58:43;83.00;;;27.70;;
64459;SDS011;50828;53.756;21.140;2022-12-16T06:04:09;79.20;;;30.60;;
64459;SDS011;50828;53.756;21.140;2022-12-16T06:09:36;73.20;;;25.20;;
64459;SDS011;50828;53.756;21.140;2022-12-16T06:15:02;68.60;;;24.90;;
64459;SDS011;50828;53.756;21.140;2022-12-16T06:20:29;72.30;;;25.10;;
64459;SDS011;50828;53.756;21.140;2022-12-16T06:25:56;64.00;;;23.10;;
64459;SDS011;50828;53.756;21.140;2022-12-16T06:31:23;82.50;;;30.60;;
64459;SDS011;50828;53.756;21.140;2022-12-16T06:36:49;117.80;;;38.00;;
64459;SDS011;50828;53.756;21.140;2022-12-16T06:42:16;120.10;;;38.50;;
64459;SDS011;50828;53.756;21.140;2022-12-16T06:47:43;90.10;;;33.10;;
64459;SDS011;50828;53.756;21.140;2022-12-16T06:53:10;66.30;;;25.00;;
64459;SDS011;50828;53.756;21.140;2022-12-16T06:58:37;58.10;;;22.20;;
64459;SDS011;50828;53.756;21.140;2022-12-16T07:04:04;60.30;;;21.50;;
64459;SDS011;50828;53.756;21.140;2022-12-16T07:09:31;63.20;;;23.30;;
64459;SDS011;50828;53.756;21.140;2022-12-16T07:14:58;65.70;;;23.80;;
64459;SDS011;50828;53.756;21.140;2022-12-16T07:20:23;79.10;;;29.30;;
64459;SDS011;50828;53.756;21.140;2022-12-16T07:25:50;70.80;;;26.50;;
64459;SDS011;50828;53.756;21.140;2022-12-16T07:31:15;65.20;;;25.00;;
64459;SDS011;50828;53.756;21.140;2022-12-16T07:36:41;68.70;;;24.90;;
64459;SDS011;50828;53.756;21.140;2022-12-16T07:42:07;55.20;;;21.40;;
64459;SDS011;50828;53.756;21.140;2022-12-16T07:47:33;64.70;;;23.50;;
64459;SDS011;50828;53.756;21.140;2022-12-16T07:53:00;60.60;;;22.30;;
64459;SDS011;50828;53.756;21.140;2022-12-16T08:03:59;71.40;;;26.80;;
64459;SDS011;50828;53.756;21.140;2022-12-16T08:09:24;61.50;;;22.40;;
64459;SDS011;50828;53.756;21.140;2022-12-16T08:14:50;68.20;;;23.90;;
64459;SDS011;50828;53.756;21.140;2022-12-16T08:20:18;54.60;;;19.10;;
64459;SDS011;50828;53.756;21.140;2022-12-16T08:25:45;49.10;;;16.10;;
64459;SDS011;50828;53.756;21.140;2022-12-16T08:31:08;46.70;;;14.90;;
64459;SDS011;50828;53.756;21.140;2022-12-16T08:36:35;51.00;;;19.20;;
64459;SDS011;50828;53.756;21.140;2022-12-16T08:42:02;68.40;;;20.40;;
64459;SDS011;50828;53.756;21.140;2022-12-16T08:47:28;66.20;;;18.00;;
64459;SDS011;50828;53.756;21.140;2022-12-16T08:52:54;52.20;;;15.10;;
64459;SDS011;50828;53.756;21.140;2022-12-16T08:58:21;64.00;;;17.50;;
64459;SDS011;50828;53.756;21.140;2022-12-16T09:03:47;58.70;;;18.00;;
64459;SDS011;50828;53.756;21.140;2022-12-16T09:09:14;54.70;;;16.40;;
64459;SDS011;50828;53.756;21.140;2022-12-16T09:14:42;57.50;;;17.40;;
64459;SDS011;50828;53.756;21.140;2022-12-16T09:20:10;51.40;;;16.40;;
64459;SDS011;50828;53.756;21.140;2022-12-16T09:25:37;53.00;;;17.70;;
64459;SDS011;50828;53.756;21.140;2022-12-16T09:31:04;60.10;;;18.00;;
64459;SDS011;50828;53.756;21.140;2022-12-16T09:36:30;65.80;;;21.70;;
64459;SDS011;50828;53.756;21.140;2022-12-16T09:42:00;60.60;;;19.90;;
64459;SDS011;50828;53.756;21.140;2022-12-16T09:47:39;65.00;;;18.20;;
64459;SDS011;50828;53.756;21.140;2022-12-16T09:53:16;71.00;;;20.60;;
64459;SDS011;50828;53.756;21.140;2022-12-16T09:58:45;74.80;;;19.60;;
64459;SDS011;50828;53.756;21.140;2022-12-16T10:04:19;104.90;;;29.40;;
64459;SDS011;50828;53.756;21.140;2022-12-16T10:09:49;70.30;;;20.60;;
64459;SDS011;50828;53.756;21.140;2022-12-16T10:15:25;104.30;;;29.20;;
64459;SDS011;50828;53.756;21.140;2022-12-16T10:21:01;115.90;;;30.20;;
64459;SDS011;50828;53.756;21.140;2022-12-16T10:26:33;111.00;;;28.50;;
64459;SDS011;50828;53.756;21.140;2022-12-16T10:32:12;126.30;;;34.20;;
64459;SDS011;50828;53.756;21.140;2022-12-16T10:37:43;135.60;;;35.10;;
64459;SDS011;50828;53.756;21.140;2022-12-16T10:43:12;113.80;;;30.00;;
64459;SDS011;50828;53.756;21.140;2022-12-16T10:48:44;106.90;;;28.00;;
64459;SDS011;50828;53.756;21.140;2022-12-16T10:54:14;105.10;;;31.00;;
64459;SDS011;50828;53.756;21.140;2022-12-16T11:00:10;106.70;;;29.80;;
64459;SDS011;50828;53.756;21.140;2022-12-16T11:05:51;96.20;;;27.90;;
64459;SDS011;50828;53.756;21.140;2022-12-16T11:11:24;93.90;;;27.20;;
64459;SDS011;50828;53.756;21.140;2022-12-16T11:16:51;83.10;;;25.60;;
64459;SDS011;50828;53.756;21.140;2022-12-16T11:22:38;75.20;;;23.80;;
64459;SDS011;50828;53.756;21.140;2022-12-16T11:28:09;91.90;;;23.80;;
64459;SDS011;50828;53.756;21.140;2022-12-16T11:33:36;115.20;;;31.80;;
64459;SDS011;50828;53.756;21.140;2022-12-16T11:39:04;92.00;;;27.70;;
64459;SDS011;50828;53.756;21.140;2022-12-16T11:44:37;83.00;;;23.80;;
64459;SDS011;50828;53.756;21.140;2022-12-16T11:50:09;87.40;;;26.20;;
64459;SDS011;50828;53.756;21.140;2022-12-16T11:55:37;95.70;;;25.80;;
64459;SDS011;50828;53.756;21.140;2022-12-16T12:01:12;94.50;;;27.60;;
64459;SDS011;50828;53.756;21.140;2022-12-16T12:07:06;87.20;;;24.40;;
64459;SDS011;50828;53.756;21.140;2022-12-16T12:12:55;84.50;;;25.70;;
64459;SDS011;50828;53.756;21.140;2022-12-16T12:18:26;81.20;;;22.70;;
64459;SDS011;50828;53.756;21.140;2022-12-16T12:24:03;78.60;;;23.10;;
64459;SDS011;50828;53.756;21.140;2022-12-16T12:29:44;83.80;;;24.80;;
64459;SDS011;50828;53.756;21.140;2022-12-16T12:35:26;79.30;;;23.80;;
64459;SDS011;50828;53.756;21.140;2022-12-16T12:41:04;78.90;;;22.20;;
64459;SDS011;50828;53.756;21.140;2022-12-16T12:46:42;132.60;;;37.40;;
64459;SDS011;50828;53.756;21.140;2022-12-16T12:52:17;136.10;;;38.20;;
64459;SDS011;50828;53.756;21.140;2022-12-16T12:58:00;167.20;;;42.30;;
64459;SDS011;50828;53.756;21.140;2022-12-16T13:03:35;179.70;;;45.40;;
64459;SDS011;50828;53.756;21.140;2022-12-16T13:14:54;263.00;;;68.00;;
64459;SDS011;50828;53.756;21.140;2022-12-16T13:20:37;164.10;;;49.60;;
64459;SDS011;50828;53.756;21.140;2022-12-16T13:26:04;120.10;;;38.30;;
64459;SDS011;50828;53.756;21.140;2022-12-16T13:31:32;122.20;;;35.20;;
64459;SDS011;50828;53.756;21.140;2022-12-16T13:37:19;118.30;;;32.60;;
64459;SDS011;50828;53.756;21.140;2022-12-16T13:42:50;113.80;;;32.40;;
64459;SDS011;50828;53.756;21.140;2022-12-16T13:48:29;106.40;;;30.90;;
64459;SDS011;50828;53.756;21.140;2022-12-16T13:54:00;119.10;;;34.80;;
64459;SDS011;50828;53.756;21.140;2022-12-16T13:59:31;149.80;;;44.50;;
64459;SDS011;50828;53.756;21.140;2022-12-16T14:05:00;171.10;;;45.80;;
64459;SDS011;50828;53.756;21.140;2022-12-16T14:10:29;281.60;;;73.80;;
64459;SDS011;50828;53.756;21.140;2022-12-16T14:15:58;200.70;;;53.20;;
64459;SDS011;50828;53.756;21.140;2022-12-16T14:21:31;154.60;;;43.60;;
64459;SDS011;50828;53.756;21.140;2022-12-16T14:27:08;105.60;;;33.40;;
64459;SDS011;50828;53.756;21.140;2022-12-16T14:32:40;129.20;;;35.10;;
64459;SDS011;50828;53.756;21.140;2022-12-16T14:38:16;124.70;;;37.90;;
64459;SDS011;50828;53.756;21.140;2022-12-16T14:43:48;115.30;;;34.30;;
64459;SDS011;50828;53.756;21.140;2022-12-16T14:49:18;101.90;;;30.60;;
64459;SDS011;50828;53.756;21.140;2022-12-16T14:54:46;111.70;;;33.80;;
64459;SDS011;50828;53.756;21.140;2022-12-16T15:00:15;121.70;;;33.70;;
64459;SDS011;50828;53.756;21.140;2022-12-16T15:05:43;108.90;;;29.40;;
64459;SDS011;50828;53.756;21.140;2022-12-16T15:11:14;105.50;;;31.70;;
64459;SDS011;50828;53.756;21.140;2022-12-16T15:16:44;130.60;;;35.40;;
64459;SDS011;50828;53.756;21.140;2022-12-16T15:22:14;106.00;;;29.90;;
64459;SDS011;50828;53.756;21.140;2022-12-16T15:27:41;150.30;;;36.30;;
64459;SDS011;50828;53.756;21.140;2022-12-16T15:33:17;128.50;;;34.70;;
64459;SDS011;50828;53.756;21.140;2022-12-16T15:38:45;139.30;;;35.20;;
64459;SDS011;50828;53.756;21.140;2022-12-16T15:44:16;166.40;;;39.40;;
64459;SDS011;50828;53.756;21.140;2022-12-16T15:49:44;148.60;;;37.70;;
64459;SDS011;50828;53.756;21.140;2022-12-16T15:55:23;173.50;;;41.30;;
64459;SDS011;50828;53.756;21.140;2022-12-16T16:00:57;153.80;;;37.90;;
64459;SDS011;50828;53.756;21.140;2022-12-16T16:06:25;134.60;;;36.70;;
64459;SDS011;50828;53.756;21.140;2022-12-16T16:11:52;175.70;;;49.00;;
64459;SDS011;50828;53.756;21.140;2022-12-16T16:17:21;182.40;;;48.10;;
64459;SDS011;50828;53.756;21.140;2022-12-16T16:22:48;146.00;;;44.00;;
64459;SDS011;50828;53.756;21.140;2022-12-16T16:28:15;120.60;;;32.60;;
64459;SDS011;50828;53.756;21.140;2022-12-16T16:33:41;121.60;;;33.80;;
64459;SDS011;50828;53.756;21.140;2022-12-16T16:39:17;107.60;;;31.60;;
64459;SDS011;50828;53.756;21.140;2022-12-16T16:44:44;105.60;;;29.70;;
64459;SDS011;50828;53.756;21.140;2022-12-16T16:50:11;102.70;;;28.40;;
64459;SDS011;50828;53.756;21.140;2022-12-16T16:55:38;99.60;;;27.80;;
64459;SDS011;50828;53.756;21.140;2022-12-16T17:01:06;102.00;;;29.30;;
64459;SDS011;50828;53.756;21.140;2022-12-16T17:06:34;97.60;;;25.80;;
64459;SDS011;50828;53.756;21.140;2022-12-16T17:12:00;105.90;;;29.00;;
64459;SDS011;50828;53.756;21.140;2022-12-16T17:17:32;103.60;;;30.60;;
64459;SDS011;50828;53.756;21.140;2022-12-16T17:22:57;100.40;;;28.10;;
64459;SDS011;50828;53.756;21.140;2022-12-16T17:28:24;98.80;;;29.10;;
64459;SDS011;50828;53.756;21.140;2022-12-16T17:33:49;88.70;;;25.80;;
64459;SDS011;50828;53.756;21.140;2022-12-16T17:39:16;111.60;;;30.90;;
64459;SDS011;50828;53.756;21.140;2022-12-16T17:44:41;129.40;;;33.10;;
64459;SDS011;50828;53.756;21.140;2022-12-16T17:50:11;120.60;;;31.90;;
64459;SDS011;50828;53.756;21.140;2022-12-16T17:55:41;128.90;;;28.60;;
64459;SDS011;50828;53.756;21.140;2022-12-16T18:01:08;134.00;;;32.20;;
64459;SDS011;50828;53.756;21.140;2022-12-16T18:06:35;178.30;;;40.40;;
64459;SDS011;50828;53.756;21.140;2022-12-16T18:12:02;195.20;;;46.60;;
64459;SDS011;50828;53.756;21.140;2022-12-16T18:17:28;150.70;;;36.80;;
64459;SDS011;50828;53.756;21.140;2022-12-16T18:22:55;124.30;;;32.40;;
64459;SDS011;50828;53.756;21.140;2022-12-16T18:28:21;110.10;;;29.00;;
64459;SDS011;50828;53.756;21.140;2022-12-16T18:33:48;112.10;;;29.40;;
64459;SDS011;50828;53.756;21.140;2022-12-16T18:39:14;115.70;;;33.50;;
64459;SDS011;50828;53.756;21.140;2022-12-16T18:44:39;111.00;;;32.20;;
64459;SDS011;50828;53.756;21.140;2022-12-16T18:50:06;113.00;;;32.00;;
64459;SDS011;50828;53.756;21.140;2022-12-16T18:55:46;147.30;;;38.90;;
64459;SDS011;50828;53.756;21.140;2022-12-16T19:01:22;221.50;;;50.60;;
64459;SDS011;50828;53.756;21.140;2022-12-16T19:06:49;123.80;;;29.90;;
64459;SDS011;50828;53.756;21.140;2022-12-16T19:12:15;110.70;;;29.00;;
64459;SDS011;50828;53.756;21.140;2022-12-16T19:17:42;89.20;;;25.00;;
64459;SDS011;50828;53.756;21.140;2022-12-16T19:23:08;112.50;;;28.90;;
64459;SDS011;50828;53.756;21.140;2022-12-16T19:28:38;93.60;;;27.30;;
64459;SDS011;50828;53.756;21.140;2022-12-16T19:34:07;78.40;;;23.40;;
64459;SDS011;50828;53.756;21.140;2022-12-16T19:39:35;116.80;;;32.50;;
64459;SDS011;50828;53.756;21.140;2022-12-16T19:45:00;116.90;;;31.40;;
64459;SDS011;50828;53.756;21.140;2022-12-16T19:50:25;99.50;;;31.10;;
64459;SDS011;50828;53.756;21.140;2022-12-16T19:55:54;85.60;;;23.20;;
64459;SDS011;50828;53.756;21.140;2022-12-16T20:01:20;75.90;;;22.50;;
64459;SDS011;50828;53.756;21.140;2022-12-16T20:07:18;88.90;;;23.40;;
64459;SDS011;50828;53.756;21.140;2022-12-16T20:12:45;82.10;;;23.40;;
64459;SDS011;50828;53.756;21.140;2022-12-16T20:18:12;75.70;;;21.70;;
64459;SDS011;50828;53.756;21.140;2022-12-16T20:23:38;70.80;;;21.80;;
64459;SDS011;50828;53.756;21.140;2022-12-16T20:29:08;70.40;;;18.20;;
64459;SDS011;50828;53.756;21.140;2022-12-16T20:34:35;92.50;;;22.30;;
64459;SDS011;50828;53.756;21.140;2022-12-16T20:40:00;75.50;;;21.90;;
64459;SDS011;50828;53.756;21.140;2022-12-16T20:45:28;144.10;;;33.00;;
64459;SDS011;50828;53.756;21.140;2022-12-16T20:50:58;138.00;;;32.80;;
64459;SDS011;50828;53.756;21.140;2022-12-16T20:56:51;111.30;;;31.50;;
64459;SDS011;50828;53.756;21.140;2022-12-16T21:02:19;144.30;;;39.60;;
64459;SDS011;50828;53.756;21.140;2022-12-16T21:07:45;177.00;;;49.60;;
64459;SDS011;50828;53.756;21.140;2022-12-16T21:13:13;134.50;;;41.40;;
64459;SDS011;50828;53.756;21.140;2022-12-16T21:18:41;115.60;;;29.40;;
64459;SDS011;50828;53.756;21.140;2022-12-16T21:24:07;87.30;;;28.70;;
64459;SDS011;50828;53.756;21.140;2022-12-16T21:29:33;109.50;;;30.80;;
64459;SDS011;50828;53.756;21.140;2022-12-16T21:35:00;267.90;;;61.00;;
64459;SDS011;50828;53.756;21.140;2022-12-16T21:40:33;446.00;;;109.50;;
64459;SDS011;50828;53.756;21.140;2022-12-16T21:46:00;294.90;;;77.70;;
64459;SDS011;50828;53.756;21.140;2022-12-16T21:51:26;160.60;;;45.30;;
64459;SDS011;50828;53.756;21.140;2022-12-16T21:56:51;131.00;;;37.80;;
64459;SDS011;50828;53.756;21.140;2022-12-16T22:02:19;107.20;;;32.00;;
64459;SDS011;50828;53.756;21.140;2022-12-16T22:07:44;112.30;;;31.60;;
64459;SDS011;50828;53.756;21.140;2022-12-16T22:13:11;94.20;;;25.50;;
64459;SDS011;50828;53.756;21.140;2022-12-16T22:18:39;76.00;;;21.20;;
64459;SDS011;50828;53.756;21.140;2022-12-16T22:24:05;100.80;;;27.00;;
64459;SDS011;50828;53.756;21.140;2022-12-16T22:29:37;66.90;;;20.90;;
64459;SDS011;50828;53.756;21.140;2022-12-16T22:35:04;55.30;;;18.80;;
64459;SDS011;50828;53.756;21.140;2022-12-16T22:40:31;81.50;;;21.90;;
64459;SDS011;50828;53.756;21.140;2022-12-16T22:46:00;100.00;;;25.20;;
64459;SDS011;50828;53.756;21.140;2022-12-16T22:51:27;63.00;;;19.10;;
64459;SDS011;50828;53.756;21.140;2022-12-16T22:56:57;75.60;;;21.00;;
64459;SDS011;50828;53.756;21.140;2022-12-16T23:02:23;61.60;;;18.90;;
64459;SDS011;50828;53.756;21.140;2022-12-16T23:07:51;87.40;;;22.70;;
64459;SDS011;50828;53.756;21.140;2022-12-16T23:13:18;82.10;;;22.40;;
64459;SDS011;50828;53.756;21.140;2022-12-16T23:18:46;87.40;;;22.90;;
64459;SDS011;50828;53.756;21.140;2022-12-16T23:24:22;77.40;;;20.40;;
64459;SDS011;50828;53.756;21.140;2022-12-16T23:29:51;68.80;;;20.10;;
64459;SDS011;50828;53.756;21.140;2022-12-16T23:35:18;62.00;;;18.50;;
64459;SDS011;50828;53.756;21.140;2022-12-16T23:40:45;67.00;;;18.90;;
64459;SDS011;50828;53.756;21.140;2022-12-16T23:46:11;81.70;;;24.60;;
64459;SDS011;50828;53.756;21.140;2022-12-16T23:51:38;82.60;;;22.10;;
64459;SDS011;50828;53.756;21.140;2022-12-16T23:57:04;59.10;;;18.20;;
